Terminal Aerodrome Forecast
Issued by NWS

Home | Current Version | Previous Version | Text Only | Print | Product List | Glossary On
Versions: 1 2 3 4 5 6 7 8 9 10 11 12 13 14 15 16 17 18 19 20 21 22 23 24 25 26 27 28 29
848
FTUS43 KDLH 260212 AAA
TAFHYR
TAF AMD
KHYR 260212Z 2602/2624 04012KT 5SM -RA BR OVC010
     FM260300 04009KT 6SM -RA BR BKN027 OVC060
     FM260600 04010G18KT 6SM -RA BR OVC008
     FM261300 04012G22KT 3SM -RA OVC008
     FM261800 02012G20KT P6SM -DZ OVC008=

USA.gov is the U.S. government's official web portal to all federal, state and local government web resources and services.